createdAt,value
2023-01-08T00:01:18.134Z,69.30
2023-01-08T00:03:48.073Z,69.20
2023-01-08T00:06:18.175Z,69.20
2023-01-08T00:08:46.248Z,69.10
2023-01-08T00:11:15.091Z,69.10
2023-01-08T00:13:42.833Z,69.10
2023-01-08T00:16:15.342Z,69.10
2023-01-08T00:18:43.896Z,69.10
2023-01-08T00:21:11.995Z,69.20
2023-01-08T00:23:39.679Z,69.20
2023-01-08T00:26:09.451Z,69.20
2023-01-08T00:28:40.315Z,69.20
2023-01-08T00:31:10.511Z,69.20
2023-01-08T00:33:42.300Z,69.80
2023-01-08T00:36:15.336Z,69.30
2023-01-08T00:38:44.192Z,69.00
2023-01-08T00:41:13.417Z,69.10
2023-01-08T00:43:43.510Z,69.20
2023-01-08T00:46:11.175Z,69.10
2023-01-08T00:48:38.916Z,69.10
2023-01-08T00:51:08.257Z,69.10
2023-01-08T00:53:36.223Z,69.00
2023-01-08T00:56:08.747Z,69.00
2023-01-08T00:58:36.538Z,68.90
2023-01-08T01:01:10.572Z,68.90
2023-01-08T01:03:41.710Z,68.70
2023-01-08T01:06:11.070Z,68.90
2023-01-08T01:08:38.477Z,69.00
2023-01-08T01:11:10.897Z,69.00
2023-01-08T01:14:08.859Z,68.90
2023-01-08T01:16:36.604Z,69.00
2023-01-08T01:19:03.980Z,69.30
2023-01-08T01:21:34.662Z,69.30
2023-01-08T01:24:04.704Z,69.30
2023-01-08T01:26:33.258Z,69.40
2023-01-08T01:29:01.307Z,69.60
2023-01-08T01:31:31.040Z,69.70
2023-01-08T01:33:59.243Z,69.90
2023-01-08T01:36:27.616Z,70.10
2023-01-08T01:38:57.437Z,70.20
2023-01-08T01:41:31.727Z,70.30
2023-01-08T01:44:20.687Z,70.20
2023-01-08T01:46:50.920Z,70.50
2023-01-08T01:49:24.259Z,70.50
2023-01-08T01:51:55.968Z,70.50
2023-01-08T01:54:23.920Z,70.60
2023-01-08T01:56:51.471Z,70.90
2023-01-08T01:59:18.997Z,70.90
2023-01-08T02:01:46.698Z,71.20
2023-01-08T02:04:16.785Z,71.20
2023-01-08T02:07:06.199Z,71.10
2023-01-08T02:10:13.498Z,70.90
2023-01-08T02:13:00.902Z,70.90
2023-01-08T02:15:34.412Z,71.30
2023-01-08T02:18:17.058Z,70.80
2023-01-08T02:20:50.156Z,70.80
2023-01-08T02:23:30.871Z,70.80
2023-01-08T02:26:06.371Z,70.80
2023-01-08T02:28:42.783Z,71.00
2023-01-08T02:31:13.194Z,71.00
2023-01-08T02:33:41.112Z,70.90
2023-01-08T02:36:11.268Z,70.90
2023-01-08T02:38:49.162Z,70.90
2023-01-08T02:41:19.634Z,70.80
2023-01-08T02:43:51.446Z,70.70
2023-01-08T02:46:22.452Z,70.80
2023-01-08T02:48:57.160Z,71.00
2023-01-08T02:51:35.663Z,70.80
2023-01-08T02:54:09.034Z,70.70
2023-01-08T02:56:40.324Z,70.80
2023-01-08T02:59:11.224Z,71.00
2023-01-08T03:01:41.017Z,71.20
2023-01-08T03:04:18.406Z,71.20
2023-01-08T03:06:48.803Z,71.10
2023-01-08T03:09:18.471Z,71.20
2023-01-08T03:11:55.151Z,71.40
2023-01-08T03:14:36.997Z,71.40
2023-01-08T03:17:18.387Z,71.40
2023-01-08T03:19:52.579Z,71.50
2023-01-08T03:22:22.513Z,71.50
2023-01-08T03:24:54.602Z,71.70
2023-01-08T03:27:27.385Z,71.60
2023-01-08T03:29:58.503Z,71.70
2023-01-08T03:32:29.395Z,71.70
2023-01-08T03:34:59.748Z,71.80
2023-01-08T03:37:32.443Z,71.90
2023-01-08T03:40:22.139Z,72.00
2023-01-08T03:42:50.215Z,72.20
2023-01-08T03:45:17.839Z,72.30
2023-01-08T03:47:47.020Z,72.30
2023-01-08T03:50:22.612Z,72.30
2023-01-08T03:52:50.041Z,72.50
2023-01-08T03:55:17.620Z,72.80
2023-01-08T03:57:45.081Z,72.90
2023-01-08T04:00:13.132Z,73.00
2023-01-08T04:02:42.295Z,73.10
2023-01-08T04:05:10.702Z,73.20
2023-01-08T04:07:38.476Z,73.30
2023-01-08T04:10:06.658Z,73.40
2023-01-08T04:12:34.216Z,73.50
2023-01-08T04:15:01.721Z,73.70
2023-01-08T04:17:29.499Z,74.00
2023-01-08T04:19:57.061Z,74.10
2023-01-08T04:22:24.512Z,74.40
2023-01-08T04:24:51.960Z,74.90
2023-01-08T04:27:19.563Z,74.80
2023-01-08T04:29:47.184Z,75.00
2023-01-08T04:32:14.633Z,75.20
2023-01-08T04:34:42.080Z,75.50
2023-01-08T04:37:09.489Z,75.60
2023-01-08T04:39:36.991Z,75.60
2023-01-08T04:42:05.840Z,75.60
2023-01-08T04:44:33.244Z,75.70
2023-01-08T04:47:00.702Z,75.90
2023-01-08T04:49:28.140Z,76.10
2023-01-08T04:51:55.645Z,76.60
2023-01-08T04:54:23.143Z,76.30
2023-01-08T04:56:51.841Z,76.40
2023-01-08T04:59:19.719Z,76.40
2023-01-08T05:01:47.322Z,76.30
2023-01-08T05:04:14.845Z,76.40
2023-01-08T05:06:42.319Z,76.60
2023-01-08T05:09:09.994Z,76.70
2023-01-08T05:11:37.639Z,76.80
2023-01-08T05:14:05.107Z,77.00
2023-01-08T05:16:32.614Z,77.00
2023-01-08T05:19:00.027Z,77.00
2023-01-08T05:21:27.536Z,77.00
2023-01-08T05:23:54.936Z,77.00
2023-01-08T05:26:22.520Z,76.90
2023-01-08T05:28:50.069Z,76.90
2023-01-08T05:31:17.738Z,77.10
2023-01-08T05:33:47.629Z,77.00
2023-01-08T05:36:15.364Z,77.10
2023-01-08T05:38:42.853Z,77.10
2023-01-08T05:41:12.888Z,77.10
2023-01-08T05:43:40.381Z,77.10
2023-01-08T05:46:08.101Z,77.10
2023-01-08T05:48:38.114Z,77.70
2023-01-08T05:51:08.172Z,77.10
2023-01-08T05:53:37.713Z,77.20
2023-01-08T05:56:10.371Z,77.10
2023-01-08T05:58:38.571Z,77.00
2023-01-08T06:01:11.861Z,77.00
2023-01-08T06:03:40.300Z,76.80
2023-01-08T06:06:08.654Z,76.90
2023-01-08T06:08:36.250Z,76.90
2023-01-08T06:11:07.142Z,77.00
2023-01-08T06:13:35.710Z,77.00
2023-01-08T06:16:03.786Z,77.20
2023-01-08T06:18:31.495Z,77.20
2023-01-08T06:20:59.086Z,77.20
2023-01-08T06:23:28.928Z,77.20
2023-01-08T06:25:59.564Z,77.10
2023-01-08T06:28:27.387Z,77.10
2023-01-08T06:30:57.297Z,77.10
2023-01-08T06:33:24.775Z,77.10
2023-01-08T06:35:52.085Z,77.20
2023-01-08T06:38:19.642Z,77.20
2023-01-08T06:40:48.084Z,77.30
2023-01-08T06:43:15.805Z,77.40
2023-01-08T06:45:43.309Z,77.40
2023-01-08T06:48:10.858Z,77.30
2023-01-08T06:50:38.488Z,77.30
2023-01-08T06:53:05.846Z,77.20
2023-01-08T06:55:33.340Z,77.10
2023-01-08T06:58:00.768Z,77.40
2023-01-08T07:00:28.389Z,76.60
2023-01-08T07:02:58.497Z,76.60
2023-01-08T07:05:26.109Z,76.20
2023-01-08T07:07:53.837Z,76.00
2023-01-08T07:10:21.529Z,75.70
2023-01-08T07:12:49.280Z,75.50
2023-01-08T07:15:18.221Z,75.40
2023-01-08T07:17:47.741Z,75.30
2023-01-08T07:20:15.379Z,75.30
2023-01-08T07:22:45.932Z,75.40
2023-01-08T07:28:03.222Z,75.60
2023-01-08T07:30:32.556Z,75.60
2023-01-08T07:33:03.697Z,75.70
2023-01-08T07:35:33.511Z,75.60
2023-01-08T07:38:00.842Z,75.60
2023-01-08T07:40:30.510Z,75.50
2023-01-08T07:43:03.110Z,75.80
2023-01-08T07:45:34.085Z,76.00
2023-01-08T07:48:03.770Z,75.80
2023-01-08T07:50:33.286Z,75.60
2023-01-08T07:53:01.841Z,75.50
2023-01-08T07:55:34.606Z,75.30
2023-01-08T07:58:11.190Z,75.20
2023-01-08T08:00:39.269Z,75.20
2023-01-08T08:03:13.518Z,75.40
2023-01-08T08:05:42.109Z,75.40
2023-01-08T08:08:10.838Z,75.50
2023-01-08T08:10:39.691Z,75.60
2023-01-08T08:13:07.598Z,75.80
2023-01-08T08:15:36.330Z,76.00
2023-01-08T08:18:04.727Z,76.10
2023-01-08T08:20:32.917Z,76.00
2023-01-08T08:23:09.432Z,76.20
2023-01-08T08:25:37.523Z,76.40
2023-01-08T08:28:05.699Z,76.60
2023-01-08T08:30:35.120Z,76.60
2023-01-08T08:33:04.401Z,76.60
2023-01-08T08:35:33.027Z,76.30
2023-01-08T08:38:00.706Z,76.20
2023-01-08T08:40:28.968Z,76.20
2023-01-08T08:43:01.379Z,76.20
2023-01-08T08:45:29.762Z,76.30
2023-01-08T08:47:57.525Z,76.40
2023-01-08T08:50:25.116Z,76.60
2023-01-08T08:52:52.860Z,76.60
2023-01-08T08:55:20.530Z,76.60
2023-01-08T08:57:50.481Z,76.60
2023-01-08T09:00:18.156Z,77.20
2023-01-08T09:02:45.704Z,76.50
2023-01-08T09:05:13.177Z,77.10
2023-01-08T09:07:40.540Z,76.50
2023-01-08T09:10:08.664Z,76.50
2023-01-08T09:12:36.066Z,76.40
2023-01-08T09:15:03.753Z,76.40
2023-01-08T09:17:31.408Z,76.40
2023-01-08T09:20:01.245Z,76.50
2023-01-08T09:22:31.325Z,76.60
2023-01-08T09:25:01.379Z,76.50
2023-01-08T09:27:29.234Z,76.50
2023-01-08T09:29:57.885Z,77.10
2023-01-08T09:32:25.514Z,76.60
2023-01-08T09:34:54.394Z,76.60
2023-01-08T09:37:23.428Z,76.50
2023-01-08T09:40:01.595Z,76.50
2023-01-08T09:42:31.162Z,76.50
2023-01-08T09:45:00.065Z,76.60
2023-01-08T09:47:32.970Z,76.80
2023-01-08T09:50:03.330Z,76.80
2023-01-08T09:52:32.806Z,77.00
2023-01-08T09:55:01.681Z,77.10
2023-01-08T09:57:29.974Z,76.90
2023-01-08T09:59:58.751Z,76.80
2023-01-08T10:02:29.191Z,76.80
2023-01-08T10:04:59.032Z,76.90
2023-01-08T10:07:28.732Z,76.90
2023-01-08T10:09:56.996Z,77.00
2023-01-08T10:12:30.594Z,76.80
2023-01-08T10:15:05.044Z,76.30
2023-01-08T10:17:49.089Z,76.20
2023-01-08T10:20:22.362Z,76.10
2023-01-08T10:22:53.128Z,76.30
2023-01-08T10:25:26.907Z,76.30
2023-01-08T10:28:02.672Z,76.20
2023-01-08T10:30:42.829Z,75.80
2023-01-08T10:33:26.124Z,75.50
2023-01-08T10:36:01.382Z,75.50
2023-01-08T10:38:40.429Z,75.40
2023-01-08T10:41:12.401Z,75.70
2023-01-08T10:43:51.816Z,75.90
2023-01-08T10:46:39.043Z,75.80
2023-01-08T10:49:08.097Z,75.40
2023-01-08T10:51:35.635Z,75.60
2023-01-08T10:54:23.760Z,75.60
2023-01-08T10:56:51.240Z,75.50
2023-01-08T10:59:23.635Z,75.40
2023-01-08T11:01:58.435Z,75.20
2023-01-08T11:04:32.798Z,75.30
2023-01-08T11:07:03.057Z,75.30
2023-01-08T11:09:33.894Z,75.20
2023-01-08T11:12:01.657Z,75.20
2023-01-08T11:14:40.051Z,75.40
2023-01-08T11:17:12.945Z,75.40
2023-01-08T11:19:40.517Z,75.50
2023-01-08T11:22:23.042Z,75.70
2023-01-08T11:24:52.430Z,75.10
2023-01-08T11:27:31.978Z,75.20
2023-01-08T11:30:02.432Z,75.10
2023-01-08T11:32:55.075Z,75.30
2023-01-08T11:35:30.183Z,74.90
2023-01-08T11:38:00.316Z,75.10
2023-01-08T11:40:48.527Z,74.50
2023-01-08T11:43:51.571Z,74.10
2023-01-08T11:46:19.927Z,74.50
2023-01-08T11:49:02.291Z,74.40
2023-01-08T11:51:38.183Z,73.80
2023-01-08T11:54:24.050Z,73.90
2023-01-08T11:57:10.239Z,74.10
2023-01-08T11:59:53.063Z,74.40
2023-01-08T12:02:41.563Z,74.20
2023-01-08T12:05:49.761Z,74.20
2023-01-08T12:08:40.962Z,74.00
2023-01-08T12:11:30.927Z,74.20
2023-01-08T12:14:30.172Z,74.20
2023-01-08T12:17:06.373Z,74.20
2023-01-08T12:19:33.724Z,74.10
2023-01-08T12:22:16.411Z,74.40
2023-01-08T12:24:58.840Z,73.90
2023-01-08T12:27:57.328Z,74.10
2023-01-08T12:30:43.275Z,73.90
2023-01-08T12:33:30.516Z,74.10
2023-01-08T12:36:00.179Z,73.90
2023-01-08T12:38:33.824Z,73.80
2023-01-08T12:41:19.090Z,73.90
2023-01-08T12:44:05.589Z,73.50
2023-01-08T12:46:43.227Z,74.00
2023-01-08T12:49:16.976Z,74.20
2023-01-08T12:51:50.043Z,74.40
2023-01-08T12:54:32.330Z,74.10
2023-01-08T12:57:07.835Z,74.00
2023-01-08T12:59:53.896Z,73.90
2023-01-08T13:02:49.468Z,74.20
2023-01-08T13:05:19.539Z,74.30
2023-01-08T13:08:24.184Z,74.60
2023-01-08T13:10:54.257Z,74.60
2023-01-08T13:13:31.681Z,74.80
2023-01-08T13:16:19.978Z,74.40
2023-01-08T13:19:01.868Z,74.40
2023-01-08T13:21:53.690Z,74.30
2023-01-08T13:24:28.824Z,74.20
2023-01-08T13:27:19.364Z,74.30
2023-01-08T13:29:48.614Z,74.10
2023-01-08T13:32:29.912Z,74.30
2023-01-08T13:35:23.903Z,74.30
2023-01-08T13:38:12.688Z,74.20
2023-01-08T13:40:47.304Z,74.00
2023-01-08T13:43:21.591Z,73.80
2023-01-08T13:46:08.985Z,73.70
2023-01-08T13:49:29.740Z,73.30
2023-01-08T13:52:01.948Z,73.40
2023-01-08T13:54:35.467Z,74.30
2023-01-08T13:57:07.078Z,73.50
2023-01-08T14:00:00.891Z,73.40
2023-01-08T14:02:34.027Z,73.50
2023-01-08T14:05:03.228Z,73.30
2023-01-08T14:07:30.867Z,73.60
2023-01-08T14:10:12.038Z,73.70
2023-01-08T14:12:40.240Z,73.10
2023-01-08T14:15:11.327Z,73.40
2023-01-08T14:17:38.743Z,73.40
2023-01-08T14:20:11.285Z,73.50
2023-01-08T14:22:42.075Z,73.20
2023-01-08T14:25:17.170Z,73.20
2023-01-08T14:27:58.176Z,73.30
2023-01-08T14:30:25.956Z,73.20
2023-01-08T14:32:55.913Z,74.10
2023-01-08T14:35:29.257Z,73.30
2023-01-08T14:37:56.741Z,73.40
2023-01-08T14:40:30.573Z,73.60
2023-01-08T14:43:01.849Z,73.30
2023-01-08T14:45:34.702Z,73.60
2023-01-08T14:48:11.843Z,73.60
2023-01-08T14:50:45.442Z,73.40
2023-01-08T14:53:33.261Z,73.60
2023-01-08T14:56:01.887Z,73.70
2023-01-08T14:58:38.256Z,73.90
2023-01-08T15:01:28.779Z,73.90
2023-01-08T15:04:19.558Z,73.90
2023-01-08T15:06:50.566Z,73.90
2023-01-08T15:09:30.155Z,74.00
2023-01-08T15:11:59.695Z,74.00
2023-01-08T15:14:31.092Z,74.00
2023-01-08T15:17:05.037Z,74.30
2023-01-08T15:19:41.498Z,73.90
2023-01-08T15:22:28.021Z,73.70
2023-01-08T15:24:59.563Z,73.70
2023-01-08T15:27:31.447Z,73.90
2023-01-08T15:30:00.957Z,73.90
2023-01-08T15:32:30.417Z,74.00
2023-01-08T15:34:57.995Z,73.90
2023-01-08T15:37:25.409Z,74.00
2023-01-08T15:39:54.945Z,74.10
2023-01-08T15:42:48.181Z,74.10
2023-01-08T15:45:18.478Z,74.00
2023-01-08T15:47:45.760Z,74.00
2023-01-08T15:50:15.408Z,74.10
2023-01-08T15:52:44.184Z,74.20
2023-01-08T15:55:22.147Z,74.10
2023-01-08T15:57:52.007Z,74.10
2023-01-08T16:00:22.991Z,74.30
2023-01-08T16:02:52.083Z,74.10
2023-01-08T16:05:20.829Z,73.90
2023-01-08T16:07:50.610Z,73.90
2023-01-08T16:10:20.525Z,73.80
2023-01-08T16:12:47.856Z,73.90
2023-01-08T16:15:15.800Z,73.80
2023-01-08T16:17:45.397Z,73.70
2023-01-08T16:20:13.558Z,73.80
2023-01-08T16:22:41.599Z,73.80
2023-01-08T16:25:11.801Z,73.70
2023-01-08T16:27:40.341Z,73.70
2023-01-08T16:30:11.726Z,73.80
2023-01-08T16:32:38.997Z,73.90
2023-01-08T16:35:06.630Z,73.90
2023-01-08T16:37:33.907Z,74.00
2023-01-08T16:40:01.209Z,74.00
2023-01-08T16:42:28.486Z,74.10
2023-01-08T16:44:57.933Z,74.20
2023-01-08T16:47:25.196Z,74.10
2023-01-08T16:49:55.272Z,74.10
2023-01-08T16:52:23.081Z,74.10
2023-01-08T16:54:50.385Z,74.30
2023-01-08T16:57:17.689Z,74.30
2023-01-08T16:59:47.408Z,74.40
2023-01-08T17:02:14.743Z,74.50
2023-01-08T17:04:46.492Z,74.60
2023-01-08T17:07:14.134Z,74.50
2023-01-08T17:09:41.371Z,74.60
2023-01-08T17:12:10.891Z,74.40
2023-01-08T17:14:38.194Z,74.30
2023-01-08T17:17:05.454Z,74.50
2023-01-08T17:19:35.144Z,74.70
2023-01-08T17:22:02.399Z,74.60
2023-01-08T17:24:29.677Z,74.70
2023-01-08T17:26:57.937Z,74.80
2023-01-08T17:29:25.178Z,74.90
2023-01-08T17:31:52.622Z,74.90
2023-01-08T17:34:19.920Z,75.00
2023-01-08T17:36:47.169Z,75.20
2023-01-08T17:39:14.417Z,75.20
2023-01-08T17:42:00.393Z,75.40
2023-01-08T17:44:27.754Z,75.30
2023-01-08T17:46:55.108Z,75.20
2023-01-08T17:49:22.398Z,75.10
2023-01-08T17:51:50.319Z,75.20
2023-01-08T17:54:17.841Z,75.10
2023-01-08T17:56:45.771Z,75.20
2023-01-08T17:59:14.715Z,75.00
2023-01-08T18:01:45.224Z,75.10
2023-01-08T18:04:13.524Z,75.20
2023-01-08T18:06:41.447Z,75.20
2023-01-08T18:09:12.539Z,75.20
2023-01-08T18:11:41.313Z,75.10
2023-01-08T18:14:11.160Z,75.00
2023-01-08T18:16:38.744Z,75.00
2023-01-08T18:19:06.125Z,74.90
2023-01-08T18:21:33.386Z,74.90
2023-01-08T18:24:03.150Z,74.90
2023-01-08T18:26:30.446Z,74.70
2023-01-08T18:29:00.242Z,74.70
2023-01-08T18:31:27.575Z,74.70
2023-01-08T18:33:55.322Z,74.80
2023-01-08T18:36:25.507Z,75.00
2023-01-08T18:38:55.738Z,75.50
2023-01-08T18:41:41.832Z,75.10
2023-01-08T18:44:10.890Z,75.20
2023-01-08T18:46:38.674Z,75.00
2023-01-08T18:49:06.523Z,74.90
2023-01-08T18:51:33.879Z,74.80
2023-01-08T18:54:01.429Z,74.70
2023-01-08T18:56:36.219Z,74.70
2023-01-08T18:59:05.426Z,74.80
2023-01-08T19:01:34.382Z,75.00
2023-01-08T19:04:07.360Z,75.10
2023-01-08T19:06:35.280Z,75.30
2023-01-08T19:09:05.008Z,75.40
2023-01-08T19:11:32.340Z,75.40
2023-01-08T19:13:59.697Z,75.60
2023-01-08T19:16:27.292Z,75.90
2023-01-08T19:18:54.870Z,75.70
2023-01-08T19:21:22.161Z,75.70
2023-01-08T19:23:49.587Z,75.70
2023-01-08T19:26:17.400Z,75.70
2023-01-08T19:28:44.753Z,75.60
2023-01-08T19:31:14.896Z,75.70
2023-01-08T19:33:46.111Z,75.60
2023-01-08T19:36:16.329Z,75.60
2023-01-08T19:38:46.940Z,75.40
2023-01-08T19:41:35.326Z,75.40
2023-01-08T19:44:03.191Z,75.60
2023-01-08T19:46:32.934Z,75.60
2023-01-08T19:49:03.761Z,75.60
2023-01-08T19:51:32.757Z,75.40
2023-01-08T19:54:01.043Z,75.30
2023-01-08T19:56:29.007Z,75.50
2023-01-08T19:58:59.026Z,75.60
2023-01-08T20:01:28.148Z,75.60
2023-01-08T20:03:56.404Z,75.40
2023-01-08T20:06:26.391Z,75.40
2023-01-08T20:09:01.010Z,75.60
2023-01-08T20:11:28.984Z,75.50
2023-01-08T20:14:00.531Z,75.70
2023-01-08T20:16:29.615Z,75.60
2023-01-08T20:18:59.291Z,75.60
2023-01-08T20:21:26.564Z,75.40
2023-01-08T20:23:59.175Z,75.20
2023-01-08T20:26:28.026Z,75.20
2023-01-08T20:28:59.477Z,75.30
2023-01-08T20:31:32.693Z,75.20
2023-01-08T20:34:02.602Z,75.30
2023-01-08T20:36:35.826Z,75.30
2023-01-08T20:39:07.560Z,75.20
2023-01-08T20:41:35.256Z,75.30
2023-01-08T20:44:06.635Z,75.40
2023-01-08T20:46:35.943Z,75.30
2023-01-08T20:49:10.234Z,75.60
2023-01-08T20:51:39.776Z,75.80
2023-01-08T20:54:16.032Z,75.90
2023-01-08T20:56:47.538Z,75.80
2023-01-08T20:59:16.572Z,75.80
2023-01-08T21:01:44.197Z,75.60
2023-01-08T21:04:13.814Z,75.70
2023-01-08T21:06:41.381Z,75.40
2023-01-08T21:09:11.238Z,76.10
2023-01-08T21:11:41.170Z,75.50
2023-01-08T21:14:12.595Z,75.60
2023-01-08T21:16:40.683Z,75.80
2023-01-08T21:19:10.440Z,75.90
2023-01-08T21:21:40.196Z,76.00
2023-01-08T21:24:09.990Z,75.90
2023-01-08T21:26:37.926Z,75.90
2023-01-08T21:29:09.148Z,75.90
2023-01-08T21:31:40.285Z,75.80
2023-01-08T21:34:09.007Z,75.80
2023-01-08T21:36:37.026Z,75.80
2023-01-08T21:39:07.119Z,75.80
2023-01-08T21:41:53.133Z,75.60
2023-01-08T21:44:41.200Z,75.40
2023-01-08T21:47:12.337Z,75.40
2023-01-08T21:49:40.357Z,75.50
2023-01-08T21:52:26.262Z,75.60
2023-01-08T21:54:54.117Z,75.60
2023-01-08T21:57:21.833Z,75.40
2023-01-08T21:59:52.347Z,75.20
2023-01-08T22:02:24.104Z,75.20
2023-01-08T22:04:55.398Z,74.80
2023-01-08T22:07:23.072Z,75.00
2023-01-08T22:09:50.357Z,75.10
2023-01-08T22:12:17.805Z,75.20
2023-01-08T22:14:45.138Z,75.20
2023-01-08T22:17:12.423Z,75.40
2023-01-08T22:19:40.217Z,75.30
2023-01-08T22:22:10.486Z,75.30
2023-01-08T22:24:39.279Z,75.90
2023-01-08T22:27:08.143Z,75.30
2023-01-08T22:29:36.984Z,75.40
2023-01-08T22:32:04.677Z,75.40
2023-01-08T22:34:33.329Z,75.40
2023-01-08T22:37:01.176Z,75.40
2023-01-08T22:39:28.543Z,75.70
2023-01-08T22:41:55.781Z,75.40
2023-01-08T22:44:27.904Z,75.50
2023-01-08T22:46:55.176Z,75.40
2023-01-08T22:49:24.538Z,75.30
2023-01-08T22:51:54.223Z,75.20
2023-01-08T22:54:21.506Z,75.30
2023-01-08T22:56:51.077Z,75.30
2023-01-08T22:59:18.365Z,75.20
2023-01-08T23:01:48.019Z,75.30
2023-01-08T23:04:15.601Z,75.30
2023-01-08T23:06:42.925Z,75.30
2023-01-08T23:09:15.231Z,75.30
2023-01-08T23:11:42.617Z,75.10
2023-01-08T23:14:14.060Z,75.00
2023-01-08T23:16:43.997Z,74.80
2023-01-08T23:19:11.911Z,74.80
2023-01-08T23:21:39.322Z,75.00
2023-01-08T23:24:13.858Z,75.10
2023-01-08T23:26:42.165Z,75.20
2023-01-08T23:29:10.645Z,75.40
2023-01-08T23:31:38.256Z,75.40
2023-01-08T23:34:06.210Z,75.60
2023-01-08T23:36:33.579Z,75.60
2023-01-08T23:39:01.155Z,75.60
2023-01-08T23:41:33.723Z,75.50
2023-01-08T23:44:06.971Z,75.60
2023-01-08T23:46:35.199Z,75.50
2023-01-08T23:49:04.988Z,75.40
2023-01-08T23:51:34.808Z,75.40
2023-01-08T23:54:02.088Z,75.50
2023-01-08T23:56:29.722Z,75.60
2023-01-08T23:58:57.529Z,75.60
